Skip to main content.
 TIME   TEMPERATURE   WINDSPEED   DIRECTION   HUMIDITY   BAROMETER   RAINFALL 
9:25 20.0°C (68.0°F) 0.0 kmh (0.0 mph) NNE 60% 1015.0hPa (29.97 inHg) 0.0mm (0.00 in.)
8:25 20.3°C (68.5 °F) 11.1 kmh (6.9 mph) E 57% 1016.0hPa (30.00 inHg) 0.0mm (0.00 in.)
7:25 20.8°C (69.4 °F) 11.1 kmh (6.9 mph) N 55% 1015.0hPa (29.97 inHg) 0.0mm (0.00 in.)
6:25 21.1°C (70.0 °F) 11.1 kmh (6.9 mph) NW 53% 1015.0hPa (29.97 inHg) 0.0mm (0.00 in.)
5:25 22.3°C (72.1 °F) 11.1 kmh (6.9 mph) N 51% 1015.0hPa (29.97 inHg) 0.0mm (0.00 in.)
4:25 24.6°C (76.3 °F) 13.0 kmh (8.1 mph) NE 50% 1016.0hPa (30.00 inHg) 0.0mm (0.00 in.)
3:25 25.5°C (77.9 °F) 13.0 kmh (8.1 mph) N 49% 1016.0hPa (30.00 inHg) 0.0mm (0.00 in.)
2:25 26.7°C (80.1 °F) 14.8 kmh (9.2 mph) N 50% 1016.0hPa (30.00 inHg) 0.0mm (0.00 in.)
1:25 25.5°C (77.9 °F) 9.3 kmh (5.8 mph) NNE 53% 1017.0hPa (30.03 inHg) 0.0mm (0.00 in.)
12:25 24.9°C (76.8 °F) 9.3 kmh (5.8 mph) NE 55% 1017.0hPa (30.03 inHg) 0.0mm (0.00 in.)
11:25 24.4°C (75.9 °F) 11.1 kmh (6.9 mph) N 57% 1017.0hPa (30.03 inHg) 0.0mm (0.00 in.)
10:25 21.9°C (71.4 °F) 13.0 kmh (8.1 mph) NNE 60% 1017.0hPa (30.03 inHg) 0.0mm (0.00 in.)
9:25 21.4°C (70.5 °F) 0.0 kmh (0.0 mph) NNW 62% 1017.0hPa (30.03 inHg) 0.0mm (0.00 in.)
8:25 18.4°C (65.1 °F) 0.0 kmh (0.0 mph) N 64% 1017.0hPa (30.03 inHg) 0.0mm (0.00 in.)
7:25 18.2°C (64.8 °F) 0.0 kmh (0.0 mph) N 64% 1016.0hPa (30.00 inHg) 0.0mm (0.00 in.)
6:25 18.0°C (64.4 °F) 0.0 kmh (0.0 mph) N 63% 1016.0hPa (30.00 inHg) 0.0mm (0.00 in.)
5:25 18.0°C (64.4 °F) 0.0 kmh (0.0 mph) N 64% 1016.0hPa (30.00 inHg) 0.0mm (0.00 in.)
4:25 18.3°C (64.9 °F) 0.0 kmh (0.0 mph) ENE 63% 1016.0hPa (30.00 inHg) 0.0mm (0.00 in.)
3:25 18.4°C (65.1 °F) 0.0 kmh (0.0 mph) ENE 62% 1016.0hPa (30.00 inHg) 0.0mm (0.00 in.)
2:25 18.5°C (65.3 °F) 0.0 kmh (0.0 mph) ENE 61% 1016.0hPa (30.00 inHg) 0.0mm (0.00 in.)
1:25 18.7°C (65.7 °F) 0.0 kmh (0.0 mph) ENE 60% 1017.0hPa (30.03 inHg) 0.0mm (0.00 in.)
12:25 18.9°C (66.0 °F) 11.1 kmh (6.9 mph) ENE 59% 1017.0hPa (30.03 inHg) 0.0mm (0.00 in.)
11:25 19.1°C (66.4 °F) 1.9 kmh (1.2 mph) ENE 59% 1017.0hPa (30.03 inHg) 0.0mm (0.00 in.)
10:25 19.2°C (66.6 °F) 0.0 kmh (0.0 mph) NE 57% 1017.0hPa (30.03 inHg) 0.0mm (0.00 in.)